Terminal Aerodrome Forecast
Issued by NWS

Home | Current Version | Previous Version | Graphics & Text | Print | Product List | Glossary On
Versions: 1 2 3 4 5 6 7 8 9 10 11 12 13 14 15 16 17 18
000
FTUS43 KICT 191734
TAFSLN
TAF
KSLN 191734Z 1918/2018 02011KT 5SM -DZ BR VCTS OVC004CB
      TEMPO 1918/1919 VRB10G20KT 2SM +TSRA
     FM200400 02008KT P6SM VCSH SCT004 BKN007
     FM200800 32015G21KT P6SM BKN009=

USA.gov is the U.S. government's official web portal to all federal, state and local government web resources and services.